Time;durP1;ratioP1;P1;durP2;ratioP2;P2;SDS_P1;SDS_P2;PMS_P1;PMS_P2;Temp;Humidity;BMP_temperature;BMP_pressure;BME280_temperature;BME280_humidity;BME280_pressure;Samples;Min_cycle;Max_cycle;Signal;HPM_P1;HPM_P2
2022/05/06 00:04:33;;;;;;;0.13;0.13;;;14.10;99.90;;;12.77;78.12;100551.19;10319038;28;96770;-79
2022/05/06 00:09:36;;;;;;;0.00;0.00;;;14.10;99.90;;;12.77;78.28;100543.19;10341741;28;98143;-79
2022/05/06 00:14:40;;;;;;;0.00;0.00;;;14.10;99.90;;;12.72;78.27;100541.09;10373007;28;96638;-79
2022/05/06 00:19:43;;;;;;;0.10;0.10;;;14.10;99.90;;;12.71;78.38;100544.72;10332031;28;96666;-78
2022/05/06 00:24:45;;;;;;;0.07;0.07;;;14.10;99.90;;;12.67;78.43;100550.59;10346557;28;97461;-78
2022/05/06 00:29:48;;;;;;;0.00;0.00;;;14.00;99.90;;;12.65;78.54;100556.09;10343291;28;98371;-78
2022/05/06 00:34:51;;;;;;;0.00;0.00;;;14.00;99.90;;;12.63;78.77;100554.59;10323748;28;98250;-78
2022/05/06 00:39:54;;;;;;;0.00;0.00;;;14.00;99.90;;;12.62;79.23;100566.28;10348101;28;96762;-79
2022/05/06 00:44:57;;;;;;;0.37;0.37;;;14.00;99.90;;;12.59;79.28;100565.63;10312746;28;96720;-78
2022/05/06 00:50:04;;;;;;;0.00;0.00;;;14.00;99.90;;;12.56;79.49;100559.78;10348438;28;96650;-78
2022/05/06 00:55:08;;;;;;;0.00;0.00;;;13.90;99.90;;;12.50;79.62;100561.31;10350753;28;97941;-78
2022/05/06 01:00:18;;;;;;;0.00;0.00;;;13.90;99.90;;;12.48;79.77;100562.50;10302734;28;97929;-79
2022/05/06 01:05:22;;;;;;;0.00;0.00;;;13.80;99.90;;;12.46;80.08;100554.66;10289304;28;97882;-79
2022/05/06 01:10:25;;;;;;;0.00;0.00;;;13.80;99.90;;;12.43;80.44;100559.50;10334272;28;96743;-78
2022/05/06 01:15:29;;;;;;;0.03;0.03;;;13.80;99.90;;;12.45;80.53;100555.66;10330663;28;96859;-78
2022/05/06 01:20:38;;;;;;;0.00;0.00;;;13.80;99.90;;;12.48;80.46;100563.31;10334663;28;96602;-78
2022/05/06 01:25:43;;;;;;;0.00;0.00;;;13.80;99.90;;;12.57;80.38;100570.28;10319358;28;99303;-78
2022/05/06 01:30:48;;;;;;;0.00;0.00;;;13.90;99.90;;;12.72;79.79;100573.06;10325620;28;97127;-78
2022/05/06 01:36:05;;;;;;;0.00;0.00;;;14.00;99.90;;;12.85;79.63;100580.53;10345007;28;97427;-78
2022/05/06 01:41:26;;;;;;;0.00;0.00;;;14.20;99.90;;;12.95;79.57;100575.78;10369327;28;96594;-78
2022/05/06 01:46:30;;;;;;;0.00;0.00;;;14.30;99.90;;;12.98;79.51;100583.47;10315961;28;96685;-78
2022/05/06 01:51:35;;;;;;;0.00;0.00;;;14.30;99.90;;;13.02;79.41;100571.44;10303078;28;97788;-78
2022/05/06 01:56:40;;;;;;;0.00;0.00;;;14.30;99.90;;;13.03;79.70;100574.94;10337604;28;96959;-78
2022/05/06 02:01:43;;;;;;;0.00;0.00;;;14.40;99.90;;;13.03;79.94;100567.75;10333734;28;96675;-79
2022/05/06 02:06:46;;;;;;;0.00;0.00;;;14.40;99.90;;;13.03;79.22;100573.09;10357735;28;98648;-79
2022/05/06 02:11:48;;;;;;;0.00;0.00;;;14.40;99.90;;;13.04;79.54;100564.09;10324248;28;96772;-78
2022/05/06 02:16:51;;;;;;;0.57;0.57;;;14.40;99.90;;;13.06;79.89;100563.91;10343704;28;97562;-78
2022/05/06 02:21:54;;;;;;;0.00;0.00;;;14.40;99.90;;;13.11;80.00;100553.53;10328687;28;96689;-79
2022/05/06 02:26:57;;;;;;;0.00;0.00;;;14.50;99.90;;;13.17;79.96;100560.00;10330704;28;96718;-80
2022/05/06 02:37:22;;;;;;;0.00;0.00;;;14.60;99.90;;;13.19;79.89;100555.31;10338174;28;96579;-78
2022/05/06 02:42:25;;;;;;;0.00;0.00;;;14.60;99.90;;;13.21;80.06;100558.69;10328309;28;96748;-78
2022/05/06 02:47:29;;;;;;;0.03;0.03;;;14.60;99.90;;;13.20;80.14;100552.50;10349313;28;96804;-78
2022/05/06 02:52:32;;;;;;;0.00;0.00;;;14.60;99.90;;;13.21;79.98;100569.38;10376945;28;96590;-78
2022/05/06 02:57:35;;;;;;;0.00;0.00;;;14.60;99.90;;;13.16;79.74;100550.34;10352948;28;99159;-78
2022/05/06 03:02:39;;;;;;;0.00;0.00;;;14.60;99.90;;;13.16;79.68;100539.69;10333982;28;96604;-78
2022/05/06 03:07:42;;;;;;;0.00;0.00;;;14.50;99.90;;;13.13;79.33;100552.38;10348178;28;96870;-77
2022/05/06 03:12:48;;;;;;;0.00;0.00;;;14.50;99.90;;;13.07;79.70;100553.06;10340190;28;96615;-78
2022/05/06 03:17:52;;;;;;;0.00;0.00;;;14.50;99.90;;;13.02;79.65;100560.78;10366638;28;99202;-77
2022/05/06 03:22:55;;;;;;;0.00;0.00;;;14.40;99.90;;;12.96;79.60;100565.97;10324570;28;96659;-77
2022/05/06 03:28:07;;;;;;;0.00;0.00;;;14.40;99.90;;;12.86;79.85;100568.84;10341778;28;97485;-77
2022/05/06 03:33:14;;;;;;;0.00;0.00;;;14.30;99.90;;;12.75;79.87;100566.56;10337513;28;97526;-78
2022/05/06 03:38:17;;;;;;;0.00;0.00;;;14.20;99.90;;;12.68;80.27;100574.41;10336511;28;96508;-78
2022/05/06 03:43:20;;;;;;;0.00;0.00;;;14.10;99.90;;;12.67;80.34;100574.59;10336231;28;97307;-77
2022/05/06 03:48:24;;;;;;;0.10;0.10;;;14.10;99.90;;;12.61;80.53;100577.94;10366118;28;96745;-77
2022/05/06 03:53:27;;;;;;;0.00;0.00;;;14.00;99.90;;;12.58;80.75;100582.59;10343725;28;96664;-77
2022/05/06 03:58:32;;;;;;;0.00;0.00;;;14.00;99.90;;;12.57;81.04;100580.13;10307941;28;98448;-78
2022/05/06 04:03:35;;;;;;;0.00;0.00;;;13.90;99.90;;;12.54;81.47;100586.63;10314212;28;98353;-80
2022/05/06 04:08:38;;;;;;;0.00;0.00;;;14.00;99.90;;;12.49;81.95;100598.81;10326136;28;97405;-78
2022/05/06 04:13:41;;;;;;;0.20;0.17;;;13.90;99.90;;;12.50;82.34;100598.63;10303890;28;97705;-78
2022/05/06 04:18:44;;;;;;;0.00;0.00;;;13.90;99.90;;;12.51;82.63;100608.28;10317737;28;97287;-79
2022/05/06 04:23:47;;;;;;;0.00;0.00;;;13.90;99.90;;;12.58;82.95;100606.59;10327843;28;96732;-80
2022/05/06 04:28:49;;;;;;;0.00;0.00;;;13.90;99.90;;;12.70;82.84;100616.91;10324376;28;96541;-81
2022/05/06 04:33:52;;;;;;;0.00;0.00;;;14.00;99.90;;;12.80;82.79;100612.22;10324968;28;98502;-80
2022/05/06 04:38:55;;;;;;;0.37;0.37;;;14.10;99.90;;;12.93;82.65;100625.00;10346475;28;97217;-80
2022/05/06 04:43:58;;;;;;;0.20;0.10;;;14.20;99.90;;;13.11;82.73;100623.75;10365740;28;97239;-79
2022/05/06 04:49:01;;;;;;;0.00;0.00;;;14.40;99.90;;;13.32;82.56;100625.03;10317000;28;98370;-80
2022/05/06 04:54:07;;;;;;;0.00;0.00;;;14.60;99.90;;;13.56;82.08;100621.38;10325590;28;96838;-79
2022/05/06 04:59:09;;;;;;;0.00;0.00;;;14.80;99.90;;;13.79;81.35;100638.22;10301443;28;97440;-79
2022/05/06 05:04:12;;;;;;;0.03;0.03;;;15.00;99.90;;;14.04;80.83;100633.53;10336837;28;96515;-80
2022/05/06 05:09:15;;;;;;;0.00;0.00;;;15.30;99.90;;;14.25;80.08;100648.88;10343465;28;96687;-79
2022/05/06 05:14:18;;;;;;;0.00;0.00;;;15.50;99.90;;;14.44;78.57;100648.34;10353121;28;96817;-79
2022/05/06 05:19:21;;;;;;;0.00;0.00;;;15.70;99.90;;;14.62;78.19;100647.22;10320504;28;98021;-79
2022/05/06 05:24:24;;;;;;;0.08;0.05;;;15.90;99.90;;;14.79;77.67;100642.53;10381590;28;96998;-80
2022/05/06 05:29:27;;;;;;;0.00;0.00;;;16.10;99.90;;;14.92;76.54;100635.50;10348775;28;98832;-79
2022/05/06 05:34:33;;;;;;;0.10;0.10;;;16.20;99.90;;;15.06;75.61;100638.38;10324956;28;96766;-80
2022/05/06 05:39:36;;;;;;;0.00;0.00;;;16.40;99.90;;;15.16;75.11;100653.09;10323543;28;97597;-79
2022/05/06 05:50:00;;;;;;;0.10;0.10;;;16.60;99.90;;;15.33;71.30;100650.22;10326488;28;96673;-78
2022/05/06 05:55:04;;;;;;;0.00;0.00;;;16.70;99.90;;;15.44;72.10;100645.22;10339036;28;96578;-77
2022/05/06 06:00:07;;;;;;;0.00;0.00;;;16.80;99.90;;;15.55;71.33;100646.56;10348599;28;97630;-79
2022/05/06 06:05:10;;;;;;;0.00;0.00;;;16.90;99.90;;;15.57;69.58;100646.38;10323161;28;96547;-79
2022/05/06 06:10:13;;;;;;;0.00;0.00;;;17.00;99.90;;;15.62;69.21;100652.88;10298612;28;96660;-78
2022/05/06 06:15:16;;;;;;;0.10;0.05;;;17.00;99.90;;;15.71;69.43;100657.09;10298126;28;97869;-79
2022/05/06 06:20:21;;;;;;;0.00;0.00;;;17.10;99.90;;;15.77;69.53;100650.97;10299441;28;96574;-79
2022/05/06 06:25:24;;;;;;;0.00;0.00;;;17.10;99.90;;;15.87;69.36;100649.81;10329410;28;96511;-79
2022/05/06 06:30:28;;;;;;;0.03;0.03;;;17.20;99.90;;;15.93;68.98;100643.69;10326502;28;98468;-78
2022/05/06 06:35:31;;;;;;;0.05;0.05;;;17.30;99.90;;;15.95;67.85;100647.84;10300511;28;97358;-79
2022/05/06 06:40:34;;;;;;;0.03;0.03;;;17.40;99.90;;;15.95;67.51;100655.03;10310700;28;97295;-78
2022/05/06 06:45:37;;;;;;;0.30;0.28;;;17.40;99.90;;;15.88;66.89;100654.16;10295810;28;97043;-79
2022/05/06 06:50:41;;;;;;;0.00;0.00;;;17.40;99.90;;;15.85;66.19;100658.06;10321549;28;97594;-78
2022/05/06 06:55:44;;;;;;;0.00;0.00;;;17.30;99.90;;;15.89;66.48;100653.94;10331819;28;96714;-79
2022/05/06 07:00:47;;;;;;;0.00;0.00;;;17.30;99.90;;;15.91;65.58;100657.28;10338657;28;96552;-78
2022/05/06 07:16:33;;;;;;;0.10;0.10;;;17.40;99.30;;;16.07;64.77;100653.50;10334804;28;96618;-78
2022/05/06 07:21:38;;;;;;;0.47;0.43;;;17.40;99.20;;;16.20;64.92;100656.31;10370597;28;96562;-78
2022/05/06 07:26:40;;;;;;;0.10;0.10;;;17.60;99.50;;;16.22;64.10;100659.63;10359050;28;97363;-78
2022/05/06 07:31:43;;;;;;;0.00;0.00;;;17.60;98.50;;;16.29;64.79;100652.47;10314914;28;96742;-78
2022/05/06 07:36:46;;;;;;;0.20;0.20;;;17.70;98.60;;;16.42;65.18;100658.94;10323262;28;96639;-78
2022/05/06 07:41:49;;;;;;;0.38;0.38;;;17.80;99.00;;;16.46;64.16;100652.19;10336956;28;96549;-78
2022/05/06 07:46:52;;;;;;;0.35;0.28;;;17.90;98.20;;;16.57;64.31;100652.47;10335515;28;98170;-78
2022/05/06 07:51:55;;;;;;;0.00;0.00;;;17.90;98.30;;;16.69;64.63;100658.13;10369905;28;97717;-78
2022/05/06 07:56:58;;;;;;;0.10;0.10;;;18.10;98.20;;;16.79;64.18;100661.31;10366316;28;96524;-78
2022/05/06 08:07:23;;;;;;;0.15;0.15;;;18.30;97.90;;;17.02;63.30;100660.19;10302732;28;96753;-78
2022/05/06 08:12:26;;;;;;;0.03;0.03;;;18.40;97.10;;;17.14;62.95;100655.91;10312291;28;97589;-79
2022/05/06 08:17:29;;;;;;;0.00;0.00;;;18.50;97.00;;;17.25;63.72;100649.16;10304980;28;96583;-78
2022/05/06 08:22:32;;;;;;;0.00;0.00;;;18.60;97.30;;;17.42;63.55;100646.94;10352141;28;96939;-79
2022/05/06 08:27:39;;;;;;;0.20;0.20;;;18.80;97.20;;;17.55;62.94;100647.81;10334035;28;96554;-78
2022/05/06 08:32:42;;;;;;;0.10;0.10;;;18.90;96.80;;;17.73;62.87;100654.50;10316737;28;98865;-78
2022/05/06 08:37:48;;;;;;;0.50;0.50;;;19.10;96.50;;;17.66;62.54;100662.53;10369148;28;96660;-78
2022/05/06 08:42:52;;;;;;;0.00;0.00;;;19.10;96.20;;;17.81;62.98;100656.97;10378186;28;96502;-78
2022/05/06 08:53:34;;;;;;;0.32;0.32;;;19.30;96.20;;;18.08;61.89;100658.69;10302695;28;97517;-78
2022/05/06 08:58:37;;;;;;;1.77;0.93;;;19.40;95.70;;;18.10;61.81;100659.31;10328676;28;96654;-78
2022/05/06 09:03:43;;;;;;;1.20;0.52;;;19.50;95.40;;;18.28;62.23;100658.69;10348299;28;96630;-78
2022/05/06 09:08:47;;;;;;;0.13;0.00;;;19.60;96.10;;;18.43;61.41;100648.56;10341731;28;97884;-78
2022/05/06 09:13:55;;;;;;;0.10;0.10;;;19.70;95.30;;;18.57;61.04;100649.34;10339806;28;96895;-77
2022/05/06 09:19:20;;;;;;;0.10;0.10;;;19.80;94.90;;;18.68;60.75;100647.94;10328160;28;96709;-78
2022/05/06 09:24:27;;;;;;;0.73;0.40;;;19.90;94.70;;;18.80;60.73;100648.94;10340891;28;96494;-78
2022/05/06 09:29:41;;;;;;;0.25;0.25;;;20.10;93.80;;;18.97;60.24;100652.84;10340616;28;96921;-78
2022/05/06 09:34:47;;;;;;;0.00;0.00;;;20.20;93.90;;;19.05;59.71;100646.38;10321818;28;96981;-78
2022/05/06 09:40:02;;;;;;;0.30;0.30;;;20.30;93.40;;;19.26;59.17;100642.56;10315664;28;96643;-78
2022/05/06 09:45:07;;;;;;;0.60;0.60;;;20.50;93.30;;;19.43;59.05;100642.88;10336968;28;96638;-78
2022/05/06 09:50:11;;;;;;;0.17;0.17;;;20.70;92.90;;;19.55;58.37;100634.94;10354181;28;96830;-78
2022/05/06 09:55:14;;;;;;;0.08;0.08;;;20.80;92.10;;;19.72;56.81;100628.03;10340418;28;96371;-78
2022/05/06 10:00:17;;;;;;;0.38;0.13;;;21.00;91.30;;;19.76;57.44;100626.56;10337203;28;97268;-79
2022/05/06 10:05:21;;;;;;;0.10;0.10;;;21.10;90.70;;;19.78;57.46;100625.28;10316340;28;96730;-78
2022/05/06 10:10:28;;;;;;;0.00;0.00;;;21.10;91.00;;;19.81;56.95;100623.22;10305333;28;96639;-78
2022/05/06 10:15:32;;;;;;;0.55;0.20;;;21.10;90.40;;;20.00;56.92;100620.38;10326153;28;96697;-79
2022/05/06 10:25:41;;;;;;;0.10;0.10;;;21.40;90.40;;;20.35;56.45;100605.56;10299513;28;96514;-78
2022/05/06 10:36:06;;;;;;;0.00;0.00;;;21.70;87.40;;;20.57;56.92;100613.06;10328481;28;97590;-78
2022/05/06 10:41:22;;;;;;;0.40;0.40;;;21.80;89.50;;;20.89;53.92;100603.97;10344135;28;96394;-78
2022/05/06 10:46:34;;;;;;;0.30;0.30;;;22.20;86.00;;;21.00;53.69;100609.47;10341833;28;96690;-78
2022/05/06 10:51:36;;;;;;;0.32;0.20;;;22.30;84.80;;;21.09;53.41;100589.16;10312714;28;96588;-78
2022/05/06 10:56:44;;;;;;;0.08;0.08;;;22.50;83.70;;;21.35;54.39;100582.63;10329087;28;96546;-78
2022/05/06 11:01:48;;;;;;;0.17;0.17;;;22.60;84.60;;;21.73;53.62;100583.34;10296811;28;96490;-78
2022/05/06 11:06:51;;;;;;;0.70;0.70;;;23.00;83.60;;;21.90;52.31;100585.13;10320837;28;97531;-78
2022/05/06 11:11:53;;;;;;;0.13;0.13;;;23.20;81.50;;;22.01;52.42;100575.38;10336042;28;96583;-78
2022/05/06 11:17:16;;;;;;;0.00;0.00;;;23.30;80.80;;;21.95;51.83;100565.50;10337412;28;96572;-78
2022/05/06 11:22:23;;;;;;;0.10;0.10;;;23.30;79.60;;;21.98;51.74;100572.31;10287835;28;97228;-78
2022/05/06 11:27:27;;;;;;;0.32;0.32;;;23.30;78.70;;;22.05;52.23;100565.72;10362711;28;96632;-78
2022/05/06 11:32:30;;;;;;;0.38;0.38;;;23.40;79.00;;;22.17;51.86;100561.16;10377697;28;96819;-78
2022/05/06 11:37:34;;;;;;;0.10;0.10;;;23.50;78.50;;;22.26;51.02;100556.25;10335024;28;97478;-79
2022/05/06 11:42:37;;;;;;;0.32;0.22;;;23.60;77.30;;;22.24;51.87;100546.69;10348097;28;96557;-80
2022/05/06 11:47:40;;;;;;;0.00;0.00;;;23.50;77.50;;;22.29;51.12;100544.09;10316878;28;96720;-80
2022/05/06 11:52:45;;;;;;;0.32;0.32;;;23.60;76.40;;;22.14;50.84;100541.88;10369515;28;96732;-80
2022/05/06 11:57:49;;;;;;;0.20;0.20;;;23.50;75.60;;;21.91;51.44;100539.97;10348215;28;98516;-78
2022/05/06 12:02:52;;;;;;;0.20;0.20;;;23.40;75.80;;;21.81;52.27;100545.13;10347774;28;98730;-80
2022/05/06 12:07:55;;;;;;;0.22;0.22;;;23.20;76.60;;;21.84;52.74;100540.06;10291395;28;96757;-79
2022/05/06 12:13:10;;;;;;;0.45;0.43;;;23.20;77.30;;;22.06;50.48;100534.06;10325849;28;98756;-79
2022/05/06 12:18:25;;;;;;;0.35;0.30;;;23.30;75.60;;;22.16;48.15;100528.94;10338326;28;96671;-79
2022/05/06 12:23:29;;;;;;;0.08;0.08;;;23.40;70.80;;;22.32;49.01;100527.41;10359133;28;96510;-79
2022/05/06 12:28:32;;;;;;;0.75;0.75;;;23.60;72.80;;;22.26;45.90;100523.75;10337349;28;96930;-80
2022/05/06 12:33:37;;;;;;;0.00;0.00;;;23.60;68.80;;;22.23;46.88;100526.91;10320980;28;97161;-80
2022/05/06 12:38:40;;;;;;;0.25;0.25;;;23.50;68.90;;;22.07;46.53;100525.75;10308823;28;96748;-79
2022/05/06 12:43:43;;;;;;;0.20;0.20;;;23.50;68.50;;;21.91;46.64;100515.59;10316621;28;98674;-78
2022/05/06 12:54:09;;;;;;;0.52;0.38;;;23.20;68.00;;;21.74;47.59;100504.66;10322590;28;96681;-78
2022/05/06 12:59:12;;;;;;;0.17;0.15;;;23.20;68.40;;;21.76;47.96;100499.00;10329761;28;97978;-80
2022/05/06 13:04:17;;;;;;;0.20;0.20;;;23.10;69.00;;;21.87;47.49;100500.88;10323352;28;97313;-80
2022/05/06 13:09:20;;;;;;;0.20;0.20;;;23.20;68.40;;;21.91;46.90;100499.38;10338609;28;98632;-79
2022/05/06 13:14:23;;;;;;;0.03;0.03;;;23.20;67.60;;;21.90;47.77;100498.56;10332349;28;98705;-80
2022/05/06 13:19:28;;;;;;;0.05;0.03;;;23.20;68.40;;;21.83;46.26;100497.00;10367818;28;98955;-79
2022/05/06 13:24:31;;;;;;;0.32;0.32;;;23.20;66.50;;;21.76;46.72;100486.28;10368868;28;97230;-78
2022/05/06 13:29:34;;;;;;;0.55;0.40;;;23.10;66.60;;;21.75;46.48;100490.06;10361993;28;96618;-79
2022/05/06 13:34:37;;;;;;;4.95;1.00;;;23.10;66.40;;;21.77;47.58;100487.13;10372852;28;96806;-78
2022/05/06 13:39:40;;;;;;;0.35;0.35;;;23.10;67.80;;;21.86;46.76;100481.13;10341233;28;97416;-78
2022/05/06 13:44:44;;;;;;;0.00;0.00;;;23.20;66.90;;;22.02;47.43;100479.63;10367795;28;96703;-79
2022/05/06 13:49:49;;;;;;;0.32;0.30;;;23.30;67.40;;;22.18;47.23;100472.66;10366604;28;97133;-78
2022/05/06 13:54:52;;;;;;;0.45;0.35;;;23.50;67.20;;;22.32;45.72;100467.84;10365823;28;98062;-78
2022/05/06 14:00:15;;;;;;;3.55;0.93;;;23.60;66.10;;;22.36;45.92;100469.00;10364425;28;97014;-78
2022/05/06 14:05:19;;;;;;;3.38;0.88;;;23.70;65.50;;;22.30;45.40;100468.06;10332556;28;98173;-78
2022/05/06 14:10:22;;;;;;;0.80;0.75;;;23.70;64.60;;;22.18;45.34;100470.78;10355597;28;96621;-78
2022/05/06 14:15:25;;;;;;;3.83;2.28;;;23.60;64.20;;;22.13;46.00;100465.28;10336679;28;98319;-78
2022/05/06 14:20:28;;;;;;;0.30;0.22;;;23.50;64.60;;;22.22;46.14;100456.78;10359145;28;98734;-78
2022/05/06 14:25:31;;;;;;;1.83;1.00;;;23.60;65.50;;;22.15;47.37;100462.34;10376166;28;97968;-79
2022/05/06 14:30:34;;;;;;;10.48;2.50;;;23.50;66.20;;;22.15;48.12;100465.03;10369162;28;96735;-78
2022/05/06 14:35:37;;;;;;;2.58;0.75;;;23.50;67.10;;;22.00;48.25;100454.66;10344732;28;98465;-79
2022/05/06 14:40:40;;;;;;;0.35;0.35;;;23.40;66.70;;;22.02;49.38;100466.09;10343287;28;96784;-80
2022/05/06 14:45:44;;;;;;;3.03;0.82;;;23.30;68.80;;;22.07;48.88;100449.97;10368272;28;96719;-79
2022/05/06 14:50:46;;;;;;;1.50;1.38;;;23.40;68.00;;;22.04;49.00;100450.44;10351315;28;96871;-79
2022/05/06 14:55:49;;;;;;;0.65;0.65;;;23.40;68.30;;;22.05;48.85;100443.94;10365303;28;96637;-79
2022/05/06 15:00:52;;;;;;;3.35;1.73;;;23.40;68.30;;;22.08;48.83;100446.19;10366927;28;96672;-80
2022/05/06 15:05:56;;;;;;;3.80;1.00;;;23.40;68.50;;;22.08;49.88;100443.47;10314167;28;96503;-79
2022/05/06 15:11:09;;;;;;;1.00;0.93;;;23.40;69.10;;;21.95;49.30;100446.44;10352550;28;96642;-77
2022/05/06 15:16:11;;;;;;;2.40;1.25;;;23.30;68.30;;;21.94;49.55;100433.94;10326826;28;96735;-78
2022/05/06 15:21:14;;;;;;;0.73;0.68;;;23.30;68.60;;;22.07;48.82;100428.31;10303338;28;96535;-78
2022/05/06 15:26:19;;;;;;;6.55;0.85;;;23.40;68.30;;;22.12;48.11;100433.84;10324435;28;96633;-78
2022/05/06 15:31:23;;;;;;;0.20;0.20;;;23.50;67.60;;;22.05;49.31;100430.41;10336140;28;96926;-78
2022/05/06 15:36:26;;;;;;;0.52;0.52;;;23.40;68.40;;;22.13;49.43;100427.38;10348335;28;98456;-78
2022/05/06 15:41:29;;;;;;;0.30;0.22;;;23.50;68.40;;;22.10;49.68;100427.03;10338032;28;96504;-78
2022/05/06 15:46:37;;;;;;;1.08;0.85;;;23.50;68.70;;;22.07;49.88;100422.91;10316375;28;98169;-78
2022/05/06 15:51:42;;;;;;;7.55;0.50;;;23.50;68.80;;;21.95;48.73;100424.81;10311462;28;96771;-78
2022/05/06 15:56:45;;;;;;;1.48;0.68;;;23.30;67.90;;;21.73;49.46;100429.16;10312949;28;98524;-78
2022/05/06 16:01:48;;;;;;;0.00;0.00;;;23.20;68.30;;;21.61;50.00;100427.28;10296381;28;96577;-78
2022/05/06 16:06:51;;;;;;;0.20;0.20;;;23.00;68.70;;;21.50;50.58;100427.25;10309611;28;98337;-77
2022/05/06 16:11:54;;;;;;;0.20;0.20;;;22.90;69.10;;;21.38;51.25;100422.66;10327779;28;96893;-77
2022/05/06 16:16:58;;;;;;;8.30;0.47;;;22.80;69.70;;;21.30;50.88;100431.13;10340645;28;98441;-79
2022/05/06 16:22:04;;;;;;;0.13;0.13;;;22.70;69.80;;;21.21;51.09;100428.97;10323934;28;96601;-78
2022/05/06 16:27:07;;;;;;;0.30;0.30;;;22.60;70.00;;;21.21;51.97;100427.06;10322299;28;96910;-78
2022/05/06 16:32:11;;;;;;;0.05;0.05;;;22.60;70.90;;;21.23;52.09;100430.38;10322293;28;98439;-78
2022/05/06 16:37:21;;;;;;;0.10;0.10;;;22.60;71.20;;;21.16;51.39;100437.75;10336900;28;97175;-77
2022/05/06 16:42:25;;;;;;;0.00;0.00;;;22.60;70.70;;;21.06;51.28;100435.63;10344865;28;97290;-78
2022/05/06 16:47:28;;;;;;;0.00;0.00;;;22.40;70.60;;;20.89;51.72;100431.94;10316048;28;96763;-78
2022/05/06 16:52:36;;;;;;;0.25;0.15;;;22.30;70.40;;;20.73;51.74;100427.16;10321271;28;96854;-78
2022/05/06 16:57:44;;;;;;;0.32;0.32;;;22.20;70.60;;;20.62;52.01;100428.75;10334879;28;96599;-77
2022/05/06 17:02:47;;;;;;;0.10;0.05;;;22.00;70.60;;;20.49;52.10;100435.16;10332483;28;96696;-77
2022/05/06 17:07:51;;;;;;;0.00;0.00;;;21.90;71.20;;;20.39;53.06;100434.88;10319239;28;97886;-78
2022/05/06 17:12:54;;;;;;;0.65;0.65;;;21.80;71.70;;;20.34;53.51;100442.00;10338489;28;96724;-77
2022/05/06 17:17:57;;;;;;;0.00;0.00;;;21.70;72.20;;;20.26;54.75;100443.09;10338965;28;96777;-77
2022/05/06 17:23:09;;;;;;;0.52;0.47;;;21.70;74.10;;;20.14;54.83;100442.19;10353588;28;96689;-78
2022/05/06 17:28:12;;;;;;;0.10;0.10;;;21.60;75.20;;;20.01;55.19;100441.28;10313384;28;96568;-78
2022/05/06 17:33:15;;;;;;;0.08;0.08;;;21.40;75.60;;;19.86;56.09;100445.41;10315301;28;98226;-78
2022/05/06 17:38:17;;;;;;;0.25;0.20;;;21.30;76.30;;;19.68;56.87;100449.72;10352547;28;96784;-78
2022/05/06 17:43:20;;;;;;;0.00;0.00;;;21.10;77.60;;;19.53;58.06;100447.31;10365345;28;96574;-78
2022/05/06 17:48:24;;;;;;;0.00;0.00;;;20.90;78.90;;;19.38;58.68;100451.41;10343214;28;96688;-78
2022/05/06 17:53:26;;;;;;;0.10;0.10;;;20.80;79.90;;;19.18;59.10;100455.06;10343647;28;98972;-79
2022/05/06 17:58:29;;;;;;;0.00;0.00;;;20.60;81.00;;;19.02;59.51;100466.38;10379803;28;97351;-79
2022/05/06 18:03:33;;;;;;;0.00;0.00;;;20.40;81.10;;;18.83;60.31;100467.28;10349619;28;96659;-79
2022/05/06 18:08:36;;;;;;;0.10;0.10;;;20.20;82.10;;;18.65;60.75;100473.34;10369399;28;97880;-81
2022/05/06 18:13:42;;;;;;;0.00;0.00;;;20.00;83.40;;;18.47;61.99;100476.72;10351692;28;96696;-81
2022/05/06 18:18:50;;;;;;;0.00;0.00;;;19.90;85.30;;;18.28;62.52;100488.38;10327819;28;96739;-86
2022/05/06 18:23:53;;;;;;;0.00;0.00;;;19.70;86.80;;;18.11;62.80;100494.25;10340462;28;98927;-87
2022/05/06 18:28:56;;;;;;;0.00;0.00;;;19.50;86.90;;;17.93;63.71;100507.47;10335260;28;98340;-86
2022/05/06 18:33:59;;;;;;;0.00;0.00;;;19.30;88.40;;;17.75;63.99;100499.22;10349903;28;97551;-85
2022/05/06 18:39:03;;;;;;;0.20;0.20;;;19.20;89.00;;;17.59;64.12;100520.09;10331130;28;98819;-83
2022/05/06 18:44:06;;;;;;;0.22;0.15;;;19.00;89.40;;;17.42;64.75;100516.13;10365823;28;98103;-81
2022/05/06 18:49:09;;;;;;;0.10;0.10;;;18.90;88.60;;;17.30;65.16;100517.78;10328813;28;96706;-81
2022/05/06 18:54:12;;;;;;;0.10;0.10;;;18.70;89.20;;;17.21;65.10;100519.81;10324307;28;98825;-81
2022/05/06 18:59:16;;;;;;;0.00;0.00;;;18.70;90.00;;;17.13;65.15;100522.69;10321555;28;96480;-80
2022/05/06 19:04:19;;;;;;;0.00;0.00;;;18.50;90.80;;;17.03;65.41;100522.22;10315915;28;99334;-80
2022/05/06 19:09:24;;;;;;;0.47;0.20;;;18.50;90.50;;;16.93;65.77;100528.00;10334530;28;96631;-81
2022/05/06 19:14:28;;;;;;;0.00;0.00;;;18.40;90.90;;;16.83;65.89;100524.88;10335353;28;96711;-81
2022/05/06 19:19:33;;;;;;;0.00;0.00;;;18.30;91.30;;;16.76;65.86;100530.19;10328066;28;98317;-81
2022/05/06 19:24:44;;;;;;;0.00;0.00;;;18.20;91.90;;;16.67;66.07;100527.84;10315502;28;97026;-81
2022/05/06 19:29:48;;;;;;;0.00;0.00;;;18.10;92.20;;;16.55;67.09;100538.31;10371394;27;96802;-81
2022/05/06 19:34:55;;;;;;;0.00;0.00;;;18.00;93.30;;;16.45;67.38;100540.56;10339451;28;98806;-82
2022/05/06 19:39:59;;;;;;;0.10;0.08;;;17.90;94.10;;;16.36;67.63;100545.22;10350933;28;97552;-81
2022/05/06 19:45:05;;;;;;;0.13;0.03;;;17.70;94.20;;;16.33;67.35;100548.31;10336719;28;97535;-79
2022/05/06 19:50:08;;;;;;;0.10;0.10;;;17.70;93.90;;;16.29;67.46;100550.56;10344113;28;96623;-81
2022/05/06 19:55:11;;;;;;;0.00;0.00;;;17.70;94.30;;;16.21;67.63;100540.00;10333131;28;97414;-80
2022/05/06 20:00:15;;;;;;;0.08;0.08;;;17.60;94.10;;;16.21;68.20;100544.53;10341332;28;96705;-81
2022/05/06 20:05:19;;;;;;;0.10;0.10;;;17.60;95.40;;;16.09;68.66;100538.88;10335773;28;97395;-81
2022/05/06 20:10:23;;;;;;;0.63;0.20;;;17.50;96.40;;;15.99;69.18;100541.88;10330501;28;98132;-80
2022/05/06 20:15:27;;;;;;;0.00;0.00;;;17.40;97.20;;;15.90;69.78;100542.25;10359801;28;97816;-80
2022/05/06 20:20:31;;;;;;;0.00;0.00;;;17.30;98.40;;;15.77;70.50;100542.94;10307188;28;98943;-81
2022/05/06 20:25:34;;;;;;;0.00;0.00;;;17.20;99.90;;;15.68;71.13;100542.25;10324271;28;96680;-80
2022/05/06 20:30:37;;;;;;;0.10;0.10;;;17.10;99.90;;;15.63;71.22;100539.31;10327763;28;96636;-80
2022/05/06 20:35:41;;;;;;;0.00;0.00;;;17.00;99.90;;;15.54;71.98;100543.13;10368577;28;96575;-81
2022/05/06 20:40:54;;;;;;;0.05;0.05;;;16.90;99.90;;;15.49;72.36;100533.00;10335289;28;96763;-81
2022/05/06 20:45:56;;;;;;;0.00;0.00;;;16.90;99.90;;;15.48;72.34;100536.69;10343898;28;96568;-81
2022/05/06 20:51:00;;;;;;;0.00;0.00;;;16.80;99.90;;;15.46;72.66;100540.56;10328469;28;98403;-80
2022/05/06 20:56:04;;;;;;;0.00;0.00;;;16.80;99.90;;;15.41;72.95;100532.28;10333822;28;98516;-80
2022/05/06 21:01:08;;;;;;;0.57;0.20;;;16.80;99.90;;;15.39;72.84;100534.31;10327384;28;97099;-80
2022/05/06 21:06:12;;;;;;;0.65;0.20;;;16.70;99.90;;;15.35;73.05;100533.88;10310926;28;98242;-80
2022/05/06 21:16:38;;;;;;;0.00;0.00;;;16.70;99.90;;;15.26;73.42;100538.53;10329203;28;96597;-80
2022/05/06 21:21:41;;;;;;;0.00;0.00;;;16.60;99.90;;;15.24;73.76;100539.75;10366896;28;97615;-84
2022/05/06 21:26:44;;;;;;;0.38;0.38;;;16.60;99.90;;;15.20;73.86;100541.13;10350136;28;96656;-80
2022/05/06 21:31:46;;;;;;;0.13;0.10;;;16.60;99.90;;;15.14;74.66;100539.22;10314618;28;97080;-81
2022/05/06 21:36:50;;;;;;;1.27;0.38;;;16.50;99.90;;;15.10;74.57;100549.47;10381347;28;96640;-82
2022/05/06 21:41:53;;;;;;;0.00;0.00;;;16.50;99.90;;;15.05;75.03;100543.00;10335946;28;96672;-81
2022/05/06 21:46:56;;;;;;;0.73;0.28;;;16.40;99.90;;;15.03;74.93;100539.72;10314808;28;97505;-81